createdAt,value
2023-04-05T00:02:52.889Z,10.17
2023-04-05T00:05:54.805Z,9.53
2023-04-05T00:08:57.310Z,10.93
2023-04-05T00:11:58.930Z,10.27
2023-04-05T00:15:00.571Z,10.57
2023-04-05T00:18:04.063Z,11.07
2023-04-05T00:21:06.122Z,11.67
2023-04-05T00:24:09.396Z,12.57
2023-04-05T00:27:11.156Z,11.73
2023-04-05T00:30:12.996Z,12.07
2023-04-05T00:33:14.748Z,11.50
2023-04-05T00:36:19.969Z,10.63
2023-04-05T00:39:21.746Z,11.90
2023-04-05T00:42:23.792Z,11.30
2023-04-05T00:45:26.060Z,10.70
2023-04-05T00:48:28.566Z,10.53
2023-04-05T00:51:31.103Z,9.87
2023-04-05T00:54:33.042Z,10.37
2023-04-05T00:57:39.177Z,11.67
2023-04-05T01:00:42.598Z,11.80
2023-04-05T01:03:47.413Z,11.53
2023-04-05T01:06:55.142Z,11.70
2023-04-05T01:09:57.686Z,11.77
2023-04-05T01:12:59.544Z,11.97
2023-04-05T01:16:01.338Z,11.60
2023-04-05T01:19:04.318Z,11.80
2023-04-05T01:22:14.132Z,11.40
2023-04-05T01:25:36.939Z,11.40
2023-04-05T01:28:57.855Z,11.00
2023-04-05T01:32:03.106Z,12.30
2023-04-05T01:35:09.795Z,11.47
2023-04-05T01:38:14.191Z,11.37
2023-04-05T01:41:16.006Z,11.03
2023-04-05T01:44:17.600Z,10.57
2023-04-05T01:47:20.423Z,11.67
2023-04-05T01:50:22.743Z,11.03
2023-04-05T01:53:26.054Z,13.03
2023-04-05T01:56:27.658Z,11.03
2023-04-05T01:59:29.557Z,10.90
2023-04-05T02:02:31.321Z,9.57
2023-04-05T02:05:33.003Z,11.77
2023-04-05T02:08:34.642Z,11.23
2023-04-05T02:11:36.332Z,9.57
2023-04-05T02:14:38.014Z,9.73
2023-04-05T02:17:40.046Z,9.20
2023-04-05T02:20:42.399Z,9.20
2023-04-05T02:23:44.231Z,9.30
2023-04-05T02:26:46.020Z,10.30
2023-04-05T02:29:47.687Z,11.10
2023-04-05T02:32:49.668Z,10.57
2023-04-05T02:35:52.150Z,11.53
2023-04-05T02:38:54.296Z,11.47
2023-04-05T02:41:56.861Z,12.10
2023-04-05T02:44:58.496Z,11.17
2023-04-05T02:48:00.321Z,11.83
2023-04-05T02:51:05.448Z,11.43
2023-04-05T02:54:07.130Z,13.10
2023-04-05T02:57:11.806Z,11.17
2023-04-05T03:00:24.171Z,10.53
2023-04-05T03:03:29.299Z,9.70
2023-04-05T03:06:32.517Z,10.90
2023-04-05T03:09:38.671Z,11.63
2023-04-05T03:12:43.818Z,11.03
2023-04-05T03:15:46.859Z,11.00
2023-04-05T03:18:51.521Z,11.73
2023-04-05T03:21:53.618Z,8.77
2023-04-05T03:25:03.890Z,9.97
2023-04-05T03:28:08.690Z,10.43
2023-04-05T03:31:13.259Z,9.80
2023-04-05T03:34:14.881Z,8.40
2023-04-05T03:37:20.977Z,9.70
2023-04-05T03:40:33.229Z,11.07
2023-04-05T03:43:36.500Z,9.37
2023-04-05T03:46:38.315Z,8.13
2023-04-05T03:49:41.705Z,8.97
2023-04-05T03:52:43.443Z,8.03
2023-04-05T03:55:49.574Z,8.57
2023-04-05T03:58:54.681Z,9.17
2023-04-05T04:02:00.485Z,8.70
2023-04-05T04:05:02.294Z,8.50
2023-04-05T04:08:09.095Z,8.97
2023-04-05T04:11:11.882Z,8.43
2023-04-05T04:14:18.446Z,9.20
2023-04-05T04:17:46.925Z,10.63
2023-04-05T04:21:10.968Z,9.33
2023-04-05T04:24:35.612Z,11.40
2023-04-05T04:28:00.495Z,12.03
2023-04-05T04:31:25.151Z,9.80
2023-04-05T04:34:45.022Z,12.47
2023-04-05T04:38:09.296Z,11.13
2023-04-05T04:41:36.452Z,10.53
2023-04-05T04:45:04.369Z,30.47
2023-04-05T04:48:38.052Z,12.70
2023-04-05T04:52:08.875Z,14.20
2023-04-05T04:55:16.100Z,12.53
2023-04-05T04:58:21.248Z,10.03
2023-04-05T05:01:34.253Z,9.00
2023-04-05T05:04:37.097Z,9.50
2023-04-05T05:07:41.657Z,10.47
2023-04-05T05:10:43.625Z,13.07
2023-04-05T05:13:48.541Z,10.40
2023-04-05T05:16:59.103Z,9.70
2023-04-05T05:20:10.623Z,8.50
2023-04-05T05:23:18.271Z,9.53
2023-04-05T05:26:20.019Z,8.93
2023-04-05T05:29:21.732Z,7.13
2023-04-05T05:32:24.564Z,6.23
2023-04-05T05:35:27.770Z,9.90
2023-04-05T05:38:29.415Z,7.40
2023-04-05T05:41:31.059Z,9.30
2023-04-05T05:44:32.788Z,10.43
2023-04-05T05:47:34.437Z,8.70
2023-04-05T05:50:36.035Z,7.40
2023-04-05T05:53:37.945Z,7.37
2023-04-05T05:56:39.636Z,6.20
2023-04-05T05:59:41.875Z,9.40
2023-04-05T06:02:43.615Z,7.60
2023-04-05T06:05:58.612Z,9.17
2023-04-05T06:09:00.317Z,5.00
2023-04-05T06:12:02.040Z,6.10
2023-04-05T06:15:04.889Z,5.50
2023-04-05T06:18:06.566Z,6.50
2023-04-05T06:21:08.320Z,7.03
2023-04-05T06:24:10.003Z,5.43
2023-04-05T06:27:14.622Z,4.60
2023-04-05T06:30:16.735Z,6.90
2023-04-05T06:33:18.500Z,5.83
2023-04-05T06:36:20.415Z,6.90
2023-04-05T06:39:22.151Z,7.80
2023-04-05T06:42:24.577Z,7.37
2023-04-05T06:45:33.609Z,9.33
2023-04-05T06:48:35.214Z,8.33
2023-04-05T06:51:36.862Z,6.37
2023-04-05T06:54:39.293Z,9.20
2023-04-05T06:57:40.997Z,5.13
2023-04-05T07:00:42.641Z,4.40
2023-04-05T07:03:44.443Z,4.60
2023-04-05T07:06:46.367Z,5.70
2023-04-05T07:09:48.014Z,4.87
2023-04-05T07:12:49.697Z,5.00
2023-04-05T07:15:51.998Z,5.00
2023-04-05T07:18:56.106Z,5.20
2023-04-05T07:21:57.919Z,4.93
2023-04-05T07:24:59.538Z,5.50
2023-04-05T07:28:01.346Z,6.50
2023-04-05T07:31:03.879Z,6.77
2023-04-05T07:34:05.588Z,6.17
2023-04-05T07:37:07.270Z,4.17
2023-04-05T07:40:10.999Z,4.20
2023-04-05T07:43:13.659Z,5.03
2023-04-05T07:46:15.652Z,6.40
2023-04-05T07:49:17.381Z,4.30
2023-04-05T07:52:19.063Z,5.97
2023-04-05T07:55:21.162Z,5.97
2023-04-05T07:58:23.795Z,4.60
2023-04-05T08:01:28.410Z,5.53
2023-04-05T08:04:30.050Z,5.57
2023-04-05T08:07:31.873Z,5.60
2023-04-05T08:10:33.525Z,5.70
2023-04-05T08:13:36.751Z,6.10
2023-04-05T08:16:38.442Z,5.83
2023-04-05T08:19:40.127Z,5.53
2023-04-05T08:22:41.849Z,6.00
2023-04-05T08:25:44.500Z,4.80
2023-04-05T08:28:46.471Z,5.30
2023-04-05T08:31:48.303Z,4.17
2023-04-05T08:34:50.008Z,4.30
2023-04-05T08:37:51.645Z,6.30
2023-04-05T08:40:53.325Z,4.17
2023-04-05T08:44:00.226Z,4.90
2023-04-05T08:47:02.054Z,3.93
2023-04-05T08:50:03.992Z,5.13
2023-04-05T08:53:05.804Z,5.43
2023-04-05T08:56:08.221Z,4.20
2023-04-05T08:59:10.888Z,4.73
2023-04-05T09:02:16.425Z,4.67
2023-04-05T09:05:19.178Z,5.87
2023-04-05T09:08:23.775Z,4.20
2023-04-05T09:11:25.767Z,4.63
2023-04-05T09:14:27.951Z,4.17
2023-04-05T09:17:30.161Z,4.27
2023-04-05T09:20:31.841Z,3.37
2023-04-05T09:23:37.109Z,5.40
2023-04-05T09:26:38.772Z,4.10
2023-04-05T09:29:44.553Z,5.20
2023-04-05T09:32:47.166Z,4.90
2023-04-05T09:35:50.615Z,5.40
2023-04-05T09:38:52.581Z,13.10
2023-04-05T09:42:14.727Z,6.03
2023-04-05T09:45:22.464Z,5.70
2023-04-05T09:49:00.109Z,5.53
2023-04-05T09:52:01.801Z,5.90
2023-04-05T09:55:04.376Z,5.00
2023-04-05T09:58:11.593Z,4.83
2023-04-05T10:01:17.259Z,6.10
2023-04-05T10:04:24.392Z,6.30
2023-04-05T10:07:26.337Z,8.53
2023-04-05T10:10:29.230Z,4.23
2023-04-05T10:13:31.491Z,3.40
2023-04-05T10:16:36.807Z,4.83
2023-04-05T10:19:53.889Z,4.20
2023-04-05T10:23:06.978Z,3.90
2023-04-05T10:26:13.357Z,4.27
2023-04-05T10:29:19.887Z,3.90
2023-04-05T10:32:28.107Z,4.57
2023-04-05T10:35:42.058Z,7.10
2023-04-05T10:39:04.212Z,4.93
2023-04-05T10:42:08.975Z,4.47
2023-04-05T10:45:12.285Z,4.77
2023-04-05T10:48:37.364Z,4.77
2023-04-05T10:51:39.058Z,3.80
2023-04-05T10:54:40.782Z,4.33
2023-04-05T10:57:43.599Z,4.40
2023-04-05T11:00:46.344Z,3.63
2023-04-05T11:03:49.273Z,3.97
2023-04-05T11:07:09.752Z,5.43
2023-04-05T11:10:16.748Z,4.40
2023-04-05T11:13:18.394Z,4.40
2023-04-05T11:16:20.802Z,4.33
2023-04-05T11:19:48.519Z,4.00
2023-04-05T11:22:54.421Z,4.17
2023-04-05T11:26:00.053Z,4.80
2023-04-05T11:29:01.773Z,4.30
2023-04-05T11:32:11.534Z,4.10
2023-04-05T11:35:14.296Z,3.80
2023-04-05T11:38:22.619Z,4.97
2023-04-05T11:41:25.825Z,3.73
2023-04-05T11:44:27.947Z,4.77
2023-04-05T11:47:29.739Z,5.23
2023-04-05T11:50:31.531Z,4.43
2023-04-05T11:53:33.132Z,4.87
2023-04-05T11:56:34.824Z,3.83
2023-04-05T11:59:36.747Z,4.17
2023-04-05T12:02:43.088Z,4.47
2023-04-05T12:05:54.348Z,6.03
2023-04-05T12:08:56.348Z,4.77
2023-04-05T12:11:57.924Z,4.13
2023-04-05T12:15:00.787Z,5.17
2023-04-05T12:18:02.574Z,4.17
2023-04-05T12:21:08.770Z,4.83
2023-04-05T12:24:10.511Z,4.33
2023-04-05T12:27:12.244Z,4.53
2023-04-05T12:30:20.968Z,5.63
2023-04-05T12:33:26.346Z,8.50
2023-04-05T12:36:28.311Z,7.13
2023-04-05T12:39:31.972Z,7.70
2023-04-05T12:42:37.297Z,9.37
2023-04-05T12:45:43.264Z,9.30
2023-04-05T12:48:49.928Z,19.60
2023-04-05T12:51:51.634Z,6.97
2023-04-05T12:54:53.910Z,8.20
2023-04-05T12:57:57.282Z,14.57
2023-04-05T13:00:59.077Z,7.87
2023-04-05T13:04:14.691Z,6.43
2023-04-05T13:07:18.451Z,6.70
2023-04-05T13:10:20.943Z,7.40
2023-04-05T13:13:23.298Z,7.67
2023-04-05T13:16:25.547Z,8.33
2023-04-05T13:19:27.176Z,10.73
2023-04-05T13:22:28.722Z,7.07
2023-04-05T13:25:30.605Z,7.93
2023-04-05T13:28:32.958Z,7.53
2023-04-05T13:31:34.780Z,8.50
2023-04-05T13:34:36.536Z,8.97
2023-04-05T13:37:38.334Z,10.70
2023-04-05T13:40:40.586Z,11.80
2023-04-05T13:43:42.284Z,11.67
2023-04-05T13:46:43.994Z,7.77
2023-04-05T13:49:46.090Z,11.27
2023-04-05T13:52:47.812Z,7.60
2023-04-05T13:55:49.426Z,9.97
2023-04-05T13:58:51.203Z,10.50
2023-04-05T14:01:52.963Z,8.80
2023-04-05T14:04:54.812Z,10.07
2023-04-05T14:07:57.244Z,12.83
2023-04-05T14:10:58.848Z,11.03
2023-04-05T14:14:00.647Z,12.73
2023-04-05T14:17:02.313Z,12.37
2023-04-05T14:20:04.096Z,12.53
2023-04-05T14:23:05.800Z,9.70
2023-04-05T14:26:07.630Z,8.90
2023-04-05T14:29:10.490Z,9.13
2023-04-05T14:32:12.191Z,8.30
2023-04-05T14:35:13.978Z,9.10
2023-04-05T14:38:15.847Z,9.90
2023-04-05T14:41:17.716Z,7.40
2023-04-05T14:44:19.461Z,9.93
2023-04-05T14:47:21.165Z,10.87
2023-04-05T14:50:23.047Z,11.80
2023-04-05T14:53:24.973Z,9.00
2023-04-05T14:56:26.671Z,11.83
2023-04-05T14:59:28.509Z,10.97
2023-04-05T15:02:31.074Z,9.70
2023-04-05T15:05:32.909Z,8.50
2023-04-05T15:08:34.590Z,11.00
2023-04-05T15:11:38.639Z,11.97
2023-04-05T15:14:40.974Z,9.37
2023-04-05T15:17:43.168Z,8.40
2023-04-05T15:20:44.872Z,9.20
2023-04-05T15:23:47.076Z,11.40
2023-04-05T15:26:48.743Z,11.10
2023-04-05T15:29:50.784Z,12.63
2023-04-05T15:32:53.441Z,11.23
2023-04-05T15:35:55.228Z,9.17
2023-04-05T15:38:57.149Z,10.90
2023-04-05T15:41:59.641Z,11.10
2023-04-05T15:45:01.428Z,11.10
2023-04-05T15:48:03.348Z,14.17
2023-04-05T15:51:05.111Z,11.50
2023-04-05T15:54:06.901Z,10.83
2023-04-05T15:57:08.607Z,9.57
2023-04-05T16:00:10.707Z,10.57
2023-04-05T16:03:12.502Z,13.20
2023-04-05T16:06:14.309Z,11.50
2023-04-05T16:09:16.041Z,11.40
2023-04-05T16:12:17.786Z,13.20
2023-04-05T16:15:19.543Z,12.07
2023-04-05T16:18:21.459Z,8.30
2023-04-05T16:21:23.236Z,9.33
2023-04-05T16:24:26.846Z,8.37
2023-04-05T16:27:28.802Z,8.30
2023-04-05T16:30:30.882Z,11.43
2023-04-05T16:33:32.697Z,8.37
2023-04-05T16:36:34.336Z,7.40
2023-04-05T16:39:36.473Z,8.33
2023-04-05T16:42:38.822Z,9.37
2023-04-05T16:45:40.606Z,9.30
2023-04-05T16:48:42.480Z,8.90
2023-04-05T16:51:44.471Z,9.73
2023-04-05T16:54:46.111Z,12.30
2023-04-05T16:57:47.830Z,16.17
2023-04-05T17:00:49.521Z,10.67
2023-04-05T17:03:54.278Z,12.87
2023-04-05T17:06:56.302Z,12.73
2023-04-05T17:09:59.819Z,14.73
2023-04-05T17:13:01.549Z,13.30
2023-04-05T17:16:03.329Z,12.67
2023-04-05T17:19:05.392Z,14.87
2023-04-05T17:22:07.198Z,16.57
2023-04-05T17:25:09.251Z,11.87
2023-04-05T17:28:11.002Z,15.47
2023-04-05T17:31:12.758Z,12.23
2023-04-05T17:34:16.476Z,14.43
2023-04-05T17:37:20.925Z,13.47
2023-04-05T17:40:22.871Z,14.00
2023-04-05T17:43:24.578Z,14.53
2023-04-05T17:46:40.079Z,18.07
2023-04-05T17:49:44.648Z,22.33
2023-04-05T17:52:47.268Z,14.90
2023-04-05T17:55:51.888Z,13.87
2023-04-05T17:58:53.837Z,12.37
2023-04-05T18:01:55.790Z,13.00
2023-04-05T18:04:57.570Z,14.30
2023-04-05T18:07:59.398Z,15.37
2023-04-05T18:11:01.392Z,15.70
2023-04-05T18:14:03.628Z,15.33
2023-04-05T18:17:06.979Z,15.37
2023-04-05T18:20:09.054Z,12.77
2023-04-05T18:23:11.052Z,14.03
2023-04-05T18:26:14.653Z,15.40
2023-04-05T18:29:16.421Z,15.60
2023-04-05T18:32:18.178Z,13.13
2023-04-05T18:35:20.402Z,13.97
2023-04-05T18:38:22.080Z,14.03
2023-04-05T18:41:23.989Z,14.07
2023-04-05T18:44:26.097Z,13.40
2023-04-05T18:47:28.282Z,15.30
2023-04-05T18:50:30.056Z,14.10
2023-04-05T18:53:31.763Z,11.77
2023-04-05T18:56:33.620Z,12.87
2023-04-05T18:59:35.506Z,15.60
2023-04-05T19:02:37.816Z,14.20
2023-04-05T19:05:39.628Z,10.90
2023-04-05T19:08:41.687Z,11.33
2023-04-05T19:11:43.418Z,12.77
2023-04-05T19:14:45.354Z,13.23
2023-04-05T19:17:47.121Z,11.93
2023-04-05T19:20:54.493Z,14.50
2023-04-05T19:23:57.064Z,10.57
2023-04-05T19:27:01.867Z,11.60
2023-04-05T19:30:04.217Z,15.50
2023-04-05T19:33:05.827Z,12.50
2023-04-05T19:36:09.867Z,13.60
2023-04-05T19:39:12.161Z,14.93
2023-04-05T19:42:13.785Z,13.53
2023-04-05T19:45:22.555Z,11.87
2023-04-05T19:48:45.028Z,12.07
2023-04-05T19:51:49.295Z,12.37
2023-04-05T19:54:54.171Z,13.37
2023-04-05T19:57:58.843Z,13.73
2023-04-05T20:01:05.755Z,12.97
2023-04-05T20:04:15.860Z,14.97
2023-04-05T20:07:18.037Z,13.07
2023-04-05T20:10:39.197Z,13.03
2023-04-05T20:13:46.254Z,12.77
2023-04-05T20:16:49.688Z,11.23
2023-04-05T20:20:05.540Z,12.30
2023-04-05T20:23:09.434Z,10.97
2023-04-05T20:26:17.997Z,11.43
2023-04-05T20:29:23.668Z,11.13
2023-04-05T20:32:26.463Z,11.80
2023-04-05T20:35:33.977Z,11.70
2023-04-05T20:38:36.886Z,13.27
2023-04-05T20:41:38.614Z,13.90
2023-04-05T20:44:43.934Z,14.37
2023-04-05T20:47:45.619Z,13.00
2023-04-05T20:50:47.409Z,12.60
2023-04-05T20:53:49.454Z,11.07
2023-04-05T20:56:51.335Z,11.23
2023-04-05T20:59:53.223Z,10.77
2023-04-05T21:02:55.123Z,9.60
2023-04-05T21:05:57.717Z,10.07
2023-04-05T21:08:59.373Z,10.17
2023-04-05T21:12:01.194Z,10.57
2023-04-05T21:15:02.998Z,10.87
2023-04-05T21:18:06.172Z,11.75
2023-04-05T21:21:08.048Z,10.80
2023-04-05T21:24:09.714Z,10.60
2023-04-05T21:27:11.367Z,10.73
2023-04-05T21:30:13.415Z,9.53
2023-04-05T21:33:16.766Z,9.93
2023-04-05T21:36:18.482Z,10.10
2023-04-05T21:39:20.627Z,9.67
2023-04-05T21:42:22.654Z,9.50
2023-04-05T21:45:24.582Z,10.47
2023-04-05T21:48:28.000Z,11.00
2023-04-05T21:51:29.695Z,10.40
2023-04-05T21:54:31.338Z,11.00
2023-04-05T21:57:35.923Z,10.17
2023-04-05T22:00:37.775Z,10.67
2023-04-05T22:03:39.477Z,10.73
2023-04-05T22:06:41.148Z,10.77
2023-04-05T22:09:42.910Z,11.10
2023-04-05T22:12:44.623Z,11.03
2023-04-05T22:15:46.614Z,10.67
2023-04-05T22:18:48.274Z,11.13
2023-04-05T22:21:50.069Z,11.47
2023-04-05T22:24:51.836Z,11.03
2023-04-05T22:27:53.461Z,9.70
2023-04-05T22:30:55.098Z,15.90
2023-04-05T22:33:56.772Z,14.40
2023-04-05T22:36:58.478Z,9.87
2023-04-05T22:40:00.186Z,9.47
2023-04-05T22:43:01.834Z,10.47
2023-04-05T22:46:03.636Z,9.83
2023-04-05T22:49:05.668Z,10.43
2023-04-05T22:52:07.530Z,9.70
2023-04-05T22:55:09.247Z,9.63
2023-04-05T22:58:11.024Z,10.23
2023-04-05T23:01:12.770Z,12.00
2023-04-05T23:04:14.378Z,11.23
2023-04-05T23:07:16.082Z,10.47
2023-04-05T23:10:18.293Z,10.47
2023-04-05T23:13:20.426Z,10.27
2023-04-05T23:16:22.122Z,9.83
2023-04-05T23:19:23.763Z,9.73
2023-04-05T23:22:26.512Z,10.10
2023-04-05T23:25:28.220Z,9.10
2023-04-05T23:28:29.843Z,9.63
2023-04-05T23:31:31.560Z,9.23
2023-04-05T23:34:33.231Z,9.77
2023-04-05T23:37:34.887Z,9.83
2023-04-05T23:40:36.519Z,9.83
2023-04-05T23:43:38.099Z,9.80
2023-04-05T23:46:39.797Z,10.20
2023-04-05T23:49:41.679Z,10.07
2023-04-05T23:52:43.337Z,9.80
2023-04-05T23:55:44.924Z,10.10
2023-04-05T23:58:46.843Z,9.90
